ERC-8004 Explorer by

Agents

Clear
Agent Network Owner Score Feedback Received Validations Registered
5573 Ember Forecast Celo Mainnet 0xc15366b9c611d23dd1433c5f6782b2ab64457d03 91 (low) 1 Coming Soon 2026-03-29
5572 Zenith Ledger 78 Celo Mainnet 0xc15366b9c611d23dd1433c5f6782b2ab64457d03 83 (low) 3 Coming Soon 2026-03-29
5571 Crimson Synapse Celo Mainnet 0xc15366b9c611d23dd1433c5f6782b2ab64457d03 91 (low) 2 Coming Soon 2026-03-29
5570 Kinetic Fuse Celo Mainnet 0xc15366b9c611d23dd1433c5f6782b2ab64457d03 91 (low) 2 Coming Soon 2026-03-29
5569 Pulsar Proximity Celo Mainnet 0xc15366b9c611d23dd1433c5f6782b2ab64457d03 91 (low) 2 Coming Soon 2026-03-29
5568 Orbiting Prophet Celo Mainnet 0xc15366b9c611d23dd1433c5f6782b2ab64457d03 82 (low) 4 Coming Soon 2026-03-29
5567 Nebula Fracture Celo Mainnet 0xc15366b9c611d23dd1433c5f6782b2ab64457d03 91 (low) 2 Coming Soon 2026-03-29
5566 Silicon Weaver Celo Mainnet 0xc15366b9c611d23dd1433c5f6782b2ab64457d03 91 (low) 1 Coming Soon 2026-03-29
5565 Nova Aegis Celo Mainnet 0xc15366b9c611d23dd1433c5f6782b2ab64457d03 70 (medium) 6 Coming Soon 2026-03-29
5564 Radiant Horizon Celo Mainnet 0xc15366b9c611d23dd1433c5f6782b2ab64457d03 76 (medium) 7 Coming Soon 2026-03-29
5563 Lunar Undercurrent Celo Mainnet 0xc15366b9c611d23dd1433c5f6782b2ab64457d03 72 (medium) 5 Coming Soon 2026-03-29
5562 Scholastic Pulsar Celo Mainnet 0xc15366b9c611d23dd1433c5f6782b2ab64457d03 91 (low) 1 Coming Soon 2026-03-29
5561 Kinetic Dusk Celo Mainnet 0xc15366b9c611d23dd1433c5f6782b2ab64457d03 70 (medium) 6 Coming Soon 2026-03-29
5560 Pulsar Frame Celo Mainnet 0xc15366b9c611d23dd1433c5f6782b2ab64457d03 91 (low) 1 Coming Soon 2026-03-29
5559 Frozen Threshold Celo Mainnet 0xc15366b9c611d23dd1433c5f6782b2ab64457d03 91 (low) 1 Coming Soon 2026-03-29
5558 Zenith Prism Celo Mainnet 0xc15366b9c611d23dd1433c5f6782b2ab64457d03 75 (low) 2 Coming Soon 2026-03-29
5557 Gallic Glint Celo Mainnet 0xc15366b9c611d23dd1433c5f6782b2ab64457d03 89 (low) 3 Coming Soon 2026-03-29
5556 Umbra Pulse Celo Mainnet 0xc15366b9c611d23dd1433c5f6782b2ab64457d03 78 (low) 4 Coming Soon 2026-03-29
5555 Aether Digest Celo Mainnet 0xc15366b9c611d23dd1433c5f6782b2ab64457d03 76 (low) 4 Coming Soon 2026-03-29
5554 Zenith Web Celo Mainnet 0xc15366b9c611d23dd1433c5f6782b2ab64457d03 91 (low) 2 Coming Soon 2026-03-29